sensor_id;sensor_type;location;lat;lon;timestamp;temperature;humidity
42187;DHT22;27858;51.414;0.018;2023-04-25T04:02:53;3.60;99.90
42187;DHT22;27858;51.414;0.018;2023-04-25T04:05:20;3.50;99.90
42187;DHT22;27858;51.414;0.018;2023-04-25T04:07:47;3.60;99.90
42187;DHT22;27858;51.414;0.018;2023-04-25T04:10:13;3.50;99.90
42187;DHT22;27858;51.414;0.018;2023-04-25T04:12:40;3.60;99.90
42187;DHT22;27858;51.414;0.018;2023-04-25T04:15:07;3.50;99.90
42187;DHT22;27858;51.414;0.018;2023-04-25T04:17:34;3.60;99.90
42187;DHT22;27858;51.414;0.018;2023-04-25T04:20:01;3.50;99.90
42187;DHT22;27858;51.414;0.018;2023-04-25T04:22:30;3.50;99.90
42187;DHT22;27858;51.414;0.018;2023-04-25T04:24:56;3.50;99.90
42187;DHT22;27858;51.414;0.018;2023-04-25T04:27:23;3.50;99.90
42187;DHT22;27858;51.414;0.018;2023-04-25T04:29:50;3.40;99.90
42187;DHT22;27858;51.414;0.018;2023-04-25T04:32:18;3.40;99.90
42187;DHT22;27858;51.414;0.018;2023-04-25T04:34:48;3.50;99.90
42187;DHT22;27858;51.414;0.018;2023-04-25T04:37:24;3.50;99.90
42187;DHT22;27858;51.414;0.018;2023-04-25T04:39:51;3.40;99.90
42187;DHT22;27858;51.414;0.018;2023-04-25T04:42:18;3.40;99.90
42187;DHT22;27858;51.414;0.018;2023-04-25T04:44:45;3.40;99.90
42187;DHT22;27858;51.414;0.018;2023-04-25T04:47:11;3.40;99.90
42187;DHT22;27858;51.414;0.018;2023-04-25T04:49:40;3.50;99.90
42187;DHT22;27858;51.414;0.018;2023-04-25T04:52:07;3.40;99.90
42187;DHT22;27858;51.414;0.018;2023-04-25T04:54:34;3.40;99.90
42187;DHT22;27858;51.414;0.018;2023-04-25T04:57:02;3.30;99.90
42187;DHT22;27858;51.414;0.018;2023-04-25T04:59:29;3.40;99.90
42187;DHT22;27858;51.414;0.018;2023-04-25T05:01:56;3.30;99.90
42187;DHT22;27858;51.414;0.018;2023-04-25T05:04:22;3.40;99.90
42187;DHT22;27858;51.414;0.018;2023-04-25T05:06:49;3.40;99.90
42187;DHT22;27858;51.414;0.018;2023-04-25T05:09:16;3.40;99.90
42187;DHT22;27858;51.414;0.018;2023-04-25T05:11:43;3.40;99.90
42187;DHT22;27858;51.414;0.018;2023-04-25T05:14:09;3.40;99.90
42187;DHT22;27858;51.414;0.018;2023-04-25T05:16:36;3.40;99.90
42187;DHT22;27858;51.414;0.018;2023-04-25T05:19:03;3.40;99.90
42187;DHT22;27858;51.414;0.018;2023-04-25T05:21:30;3.40;99.90
42187;DHT22;27858;51.414;0.018;2023-04-25T05:23:58;3.50;99.90
42187;DHT22;27858;51.414;0.018;2023-04-25T05:26:24;3.50;99.90
42187;DHT22;27858;51.414;0.018;2023-04-25T05:28:51;3.40;99.90
42187;DHT22;27858;51.414;0.018;2023-04-25T05:31:18;3.40;99.90
42187;DHT22;27858;51.414;0.018;2023-04-25T05:33:45;3.50;99.90
42187;DHT22;27858;51.414;0.018;2023-04-25T05:36:12;3.50;99.90
42187;DHT22;27858;51.414;0.018;2023-04-25T05:38:38;3.50;99.90
42187;DHT22;27858;51.414;0.018;2023-04-25T05:41:10;3.50;99.90
42187;DHT22;27858;51.414;0.018;2023-04-25T05:43:39;3.50;99.90
42187;DHT22;27858;51.414;0.018;2023-04-25T05:46:15;3.60;99.90
42187;DHT22;27858;51.414;0.018;2023-04-25T05:48:46;3.60;99.90
42187;DHT22;27858;51.414;0.018;2023-04-25T05:51:15;3.70;99.90
42187;DHT22;27858;51.414;0.018;2023-04-25T05:53:45;3.70;99.90
42187;DHT22;27858;51.414;0.018;2023-04-25T05:56:15;3.70;99.90
42187;DHT22;27858;51.414;0.018;2023-04-25T05:58:42;3.80;99.90
42187;DHT22;27858;51.414;0.018;2023-04-25T06:01:08;3.80;99.90
42187;DHT22;27858;51.414;0.018;2023-04-25T06:03:35;3.90;99.90
42187;DHT22;27858;51.414;0.018;2023-04-25T06:06:06;3.90;99.90
42187;DHT22;27858;51.414;0.018;2023-04-25T06:08:34;4.00;99.90
42187;DHT22;27858;51.414;0.018;2023-04-25T06:11:01;4.00;99.90
42187;DHT22;27858;51.414;0.018;2023-04-25T06:13:28;4.00;99.90
42187;DHT22;27858;51.414;0.018;2023-04-25T06:15:55;4.10;99.90
42187;DHT22;27858;51.414;0.018;2023-04-25T06:18:22;4.20;99.90
42187;DHT22;27858;51.414;0.018;2023-04-25T06:20:48;4.20;99.90
42187;DHT22;27858;51.414;0.018;2023-04-25T06:23:15;4.20;99.90
42187;DHT22;27858;51.414;0.018;2023-04-25T06:25:42;4.30;99.90
42187;DHT22;27858;51.414;0.018;2023-04-25T06:28:09;4.30;99.90
42187;DHT22;27858;51.414;0.018;2023-04-25T06:30:37;4.40;99.90
42187;DHT22;27858;51.414;0.018;2023-04-25T06:33:04;4.40;99.90
42187;DHT22;27858;51.414;0.018;2023-04-25T06:35:30;4.50;99.90
42187;DHT22;27858;51.414;0.018;2023-04-25T06:37:57;4.50;99.90
42187;DHT22;27858;51.414;0.018;2023-04-25T06:40:24;4.50;99.90
42187;DHT22;27858;51.414;0.018;2023-04-25T06:42:51;4.60;99.90
42187;DHT22;27858;51.414;0.018;2023-04-25T06:45:18;4.60;99.90
42187;DHT22;27858;51.414;0.018;2023-04-25T06:47:52;4.60;99.90
42187;DHT22;27858;51.414;0.018;2023-04-25T06:50:22;4.70;99.90
42187;DHT22;27858;51.414;0.018;2023-04-25T06:52:49;4.70;99.90
42187;DHT22;27858;51.414;0.018;2023-04-25T06:55:17;4.80;99.90
42187;DHT22;27858;51.414;0.018;2023-04-25T06:57:47;4.90;99.90
42187;DHT22;27858;51.414;0.018;2023-04-25T07:00:29;4.90;99.90
42187;DHT22;27858;51.414;0.018;2023-04-25T07:02:57;5.00;99.90
42187;DHT22;27858;51.414;0.018;2023-04-25T07:05:24;5.00;99.90
42187;DHT22;27858;51.414;0.018;2023-04-25T07:07:51;5.10;99.90
42187;DHT22;27858;51.414;0.018;2023-04-25T07:10:18;5.10;99.90
42187;DHT22;27858;51.414;0.018;2023-04-25T07:12:45;5.20;99.90
42187;DHT22;27858;51.414;0.018;2023-04-25T07:15:12;5.30;99.90
42187;DHT22;27858;51.414;0.018;2023-04-25T07:17:38;5.30;99.90
42187;DHT22;27858;51.414;0.018;2023-04-25T07:20:06;5.40;99.90
42187;DHT22;27858;51.414;0.018;2023-04-25T07:22:33;5.40;99.90
42187;DHT22;27858;51.414;0.018;2023-04-25T07:24:59;5.50;99.90
42187;DHT22;27858;51.414;0.018;2023-04-25T07:27:26;5.50;99.90
42187;DHT22;27858;51.414;0.018;2023-04-25T07:29:53;5.60;99.90
42187;DHT22;27858;51.414;0.018;2023-04-25T07:32:20;5.60;99.90
42187;DHT22;27858;51.414;0.018;2023-04-25T07:34:47;5.70;99.90
42187;DHT22;27858;51.414;0.018;2023-04-25T07:37:14;5.70;99.90
42187;DHT22;27858;51.414;0.018;2023-04-25T07:39:41;5.80;99.90
42187;DHT22;27858;51.414;0.018;2023-04-25T07:42:08;5.80;99.90
42187;DHT22;27858;51.414;0.018;2023-04-25T07:44:35;5.80;99.90
42187;DHT22;27858;51.414;0.018;2023-04-25T07:47:05;5.90;99.90
42187;DHT22;27858;51.414;0.018;2023-04-25T07:49:36;5.90;99.90
42187;DHT22;27858;51.414;0.018;2023-04-25T07:52:04;6.00;99.90
42187;DHT22;27858;51.414;0.018;2023-04-25T07:54:32;6.00;99.90
42187;DHT22;27858;51.414;0.018;2023-04-25T07:56:59;6.00;99.90
42187;DHT22;27858;51.414;0.018;2023-04-25T07:59:26;6.10;99.90
42187;DHT22;27858;51.414;0.018;2023-04-25T08:01:55;6.20;99.90
42187;DHT22;27858;51.414;0.018;2023-04-25T08:04:24;6.20;99.90
42187;DHT22;27858;51.414;0.018;2023-04-25T08:06:55;6.30;99.90
42187;DHT22;27858;51.414;0.018;2023-04-25T08:09:22;6.30;99.90
42187;DHT22;27858;51.414;0.018;2023-04-25T08:11:49;6.40;99.90
42187;DHT22;27858;51.414;0.018;2023-04-25T08:14:15;6.50;99.90
42187;DHT22;27858;51.414;0.018;2023-04-25T08:16:42;6.50;99.90
42187;DHT22;27858;51.414;0.018;2023-04-25T08:19:10;6.60;99.90
42187;DHT22;27858;51.414;0.018;2023-04-25T08:21:37;6.60;99.90
42187;DHT22;27858;51.414;0.018;2023-04-25T08:24:04;6.80;99.90
42187;DHT22;27858;51.414;0.018;2023-04-25T08:26:31;6.70;99.90
42187;DHT22;27858;51.414;0.018;2023-04-25T08:28:58;6.80;99.90
42187;DHT22;27858;51.414;0.018;2023-04-25T08:31:25;6.80;99.90
42187;DHT22;27858;51.414;0.018;2023-04-25T08:33:52;6.90;99.90
42187;DHT22;27858;51.414;0.018;2023-04-25T08:36:19;7.10;99.90
42187;DHT22;27858;51.414;0.018;2023-04-25T08:39:03;7.10;99.90
42187;DHT22;27858;51.414;0.018;2023-04-25T08:41:30;7.10;99.90
42187;DHT22;27858;51.414;0.018;2023-04-25T08:43:58;7.20;99.90
42187;DHT22;27858;51.414;0.018;2023-04-25T08:46:27;7.20;99.90
42187;DHT22;27858;51.414;0.018;2023-04-25T08:48:58;7.30;99.90
42187;DHT22;27858;51.414;0.018;2023-04-25T08:51:27;7.30;99.90
42187;DHT22;27858;51.414;0.018;2023-04-25T08:54:08;7.40;99.90
42187;DHT22;27858;51.414;0.018;2023-04-25T08:56:57;7.50;99.90
42187;DHT22;27858;51.414;0.018;2023-04-25T08:59:28;7.50;99.90
42187;DHT22;27858;51.414;0.018;2023-04-25T09:01:56;7.60;99.90
42187;DHT22;27858;51.414;0.018;2023-04-25T09:04:23;7.60;99.90
42187;DHT22;27858;51.414;0.018;2023-04-25T09:06:50;7.70;99.90
42187;DHT22;27858;51.414;0.018;2023-04-25T09:09:19;7.70;99.90
42187;DHT22;27858;51.414;0.018;2023-04-25T09:11:46;7.80;99.90
42187;DHT22;27858;51.414;0.018;2023-04-25T09:14:21;7.80;99.90
42187;DHT22;27858;51.414;0.018;2023-04-25T09:19:23;7.90;99.90
42187;DHT22;27858;51.414;0.018;2023-04-25T09:22:05;8.00;99.90
42187;DHT22;27858;51.414;0.018;2023-04-25T09:24:42;8.10;99.90
42187;DHT22;27858;51.414;0.018;2023-04-25T09:27:12;8.20;99.90
42187;DHT22;27858;51.414;0.018;2023-04-25T09:29:40;8.10;99.90
42187;DHT22;27858;51.414;0.018;2023-04-25T09:34:40;7.90;99.90
42187;DHT22;27858;51.414;0.018;2023-04-25T09:37:11;7.90;99.90
42187;DHT22;27858;51.414;0.018;2023-04-25T09:39:38;7.80;99.90
42187;DHT22;27858;51.414;0.018;2023-04-25T09:42:05;7.80;99.90
42187;DHT22;27858;51.414;0.018;2023-04-25T09:44:32;7.90;99.90
42187;DHT22;27858;51.414;0.018;2023-04-25T09:46:59;7.90;99.90
42187;DHT22;27858;51.414;0.018;2023-04-25T09:49:27;8.00;99.90
42187;DHT22;27858;51.414;0.018;2023-04-25T09:51:58;8.10;99.90
42187;DHT22;27858;51.414;0.018;2023-04-25T09:54:25;8.10;99.90
42187;DHT22;27858;51.414;0.018;2023-04-25T09:56:53;8.30;99.90
42187;DHT22;27858;51.414;0.018;2023-04-25T09:59:21;8.60;99.90
42187;DHT22;27858;51.414;0.018;2023-04-25T10:01:49;8.80;99.90
42187;DHT22;27858;51.414;0.018;2023-04-25T10:04:24;8.70;99.90
42187;DHT22;27858;51.414;0.018;2023-04-25T10:06:55;8.80;99.90
42187;DHT22;27858;51.414;0.018;2023-04-25T10:09:25;9.10;99.90
42187;DHT22;27858;51.414;0.018;2023-04-25T10:11:53;9.00;99.90
42187;DHT22;27858;51.414;0.018;2023-04-25T10:14:20;9.20;99.90
42187;DHT22;27858;51.414;0.018;2023-04-25T10:16:48;9.20;99.90
42187;DHT22;27858;51.414;0.018;2023-04-25T10:19:20;9.20;99.90
42187;DHT22;27858;51.414;0.018;2023-04-25T10:21:54;9.20;99.90
42187;DHT22;27858;51.414;0.018;2023-04-25T10:24:22;9.30;99.90
42187;DHT22;27858;51.414;0.018;2023-04-25T10:26:50;9.30;99.90
42187;DHT22;27858;51.414;0.018;2023-04-25T10:29:25;9.10;93.60
42187;DHT22;27858;51.414;0.018;2023-04-25T10:31:52;9.10;99.90
42187;DHT22;27858;51.414;0.018;2023-04-25T10:34:19;9.20;99.90
42187;DHT22;27858;51.414;0.018;2023-04-25T10:36:51;9.20;84.30
42187;DHT22;27858;51.414;0.018;2023-04-25T10:39:23;9.20;99.90
42187;DHT22;27858;51.414;0.018;2023-04-25T10:41:56;9.20;99.90
42187;DHT22;27858;51.414;0.018;2023-04-25T10:44:28;9.20;99.90
42187;DHT22;27858;51.414;0.018;2023-04-25T10:47:00;9.20;99.90
42187;DHT22;27858;51.414;0.018;2023-04-25T10:49:43;9.40;99.90
42187;DHT22;27858;51.414;0.018;2023-04-25T10:54:47;9.60;18.70
42187;DHT22;27858;51.414;0.018;2023-04-25T10:57:37;9.80;13.90
42187;DHT22;27858;51.414;0.018;2023-04-25T11:00:13;9.90;1.00
42187;DHT22;27858;51.414;0.018;2023-04-25T11:02:52;10.10;54.50
42187;DHT22;27858;51.414;0.018;2023-04-25T11:05:32;9.90;1.00
42187;DHT22;27858;51.414;0.018;2023-04-25T11:08:11;9.70;1.00
42187;DHT22;27858;51.414;0.018;2023-04-25T11:10:39;9.80;1.00
42187;DHT22;27858;51.414;0.018;2023-04-25T11:13:06;9.80;99.90
42187;DHT22;27858;51.414;0.018;2023-04-25T11:15:33;10.00;99.90
42187;DHT22;27858;51.414;0.018;2023-04-25T11:18:00;10.10;1.00
42187;DHT22;27858;51.414;0.018;2023-04-25T11:20:28;10.30;1.00
42187;DHT22;27858;51.414;0.018;2023-04-25T11:22:58;10.40;1.00
42187;DHT22;27858;51.414;0.018;2023-04-25T11:25:26;10.50;1.00
42187;DHT22;27858;51.414;0.018;2023-04-25T11:27:54;10.60;1.00
42187;DHT22;27858;51.414;0.018;2023-04-25T11:30:23;10.50;99.90
42187;DHT22;27858;51.414;0.018;2023-04-25T11:32:50;10.50;99.90
42187;DHT22;27858;51.414;0.018;2023-04-25T11:35:19;10.70;1.00
42187;DHT22;27858;51.414;0.018;2023-04-25T11:37:49;10.90;1.00
42187;DHT22;27858;51.414;0.018;2023-04-25T11:40:17;11.00;1.00
42187;DHT22;27858;51.414;0.018;2023-04-25T11:42:46;11.00;99.90
42187;DHT22;27858;51.414;0.018;2023-04-25T11:45:13;11.00;1.00
42187;DHT22;27858;51.414;0.018;2023-04-25T11:47:40;10.90;99.90
42187;DHT22;27858;51.414;0.018;2023-04-25T11:50:08;10.90;1.00
42187;DHT22;27858;51.414;0.018;2023-04-25T11:52:46;10.80;99.90
42187;DHT22;27858;51.414;0.018;2023-04-25T11:55:14;10.80;99.90
42187;DHT22;27858;51.414;0.018;2023-04-25T11:57:43;10.80;99.90
42187;DHT22;27858;51.414;0.018;2023-04-25T12:00:16;10.80;99.90
42187;DHT22;27858;51.414;0.018;2023-04-25T12:02:52;10.90;99.90
42187;DHT22;27858;51.414;0.018;2023-04-25T12:05:20;11.00;99.90
42187;DHT22;27858;51.414;0.018;2023-04-25T12:08:10;11.10;99.90
42187;DHT22;27858;51.414;0.018;2023-04-25T12:10:42;11.00;99.90
42187;DHT22;27858;51.414;0.018;2023-04-25T12:13:26;11.30;99.90
42187;DHT22;27858;51.414;0.018;2023-04-25T12:15:54;11.60;1.00
42187;DHT22;27858;51.414;0.018;2023-04-25T12:18:25;11.90;99.90
42187;DHT22;27858;51.414;0.018;2023-04-25T12:20:55;12.10;99.90
42187;DHT22;27858;51.414;0.018;2023-04-25T12:23:28;12.30;99.90
42187;DHT22;27858;51.414;0.018;2023-04-25T12:25:56;12.10;99.90
42187;DHT22;27858;51.414;0.018;2023-04-25T12:28:24;11.80;99.90
42187;DHT22;27858;51.414;0.018;2023-04-25T12:31:01;12.30;99.90
42187;DHT22;27858;51.414;0.018;2023-04-25T12:33:33;12.50;99.90
42187;DHT22;27858;51.414;0.018;2023-04-25T12:36:01;12.60;99.90
42187;DHT22;27858;51.414;0.018;2023-04-25T12:38:39;12.60;99.90
42187;DHT22;27858;51.414;0.018;2023-04-25T12:41:07;12.60;99.90
42187;DHT22;27858;51.414;0.018;2023-04-25T12:43:34;12.60;99.90
42187;DHT22;27858;51.414;0.018;2023-04-25T12:46:01;12.60;99.90
42187;DHT22;27858;51.414;0.018;2023-04-25T12:48:28;12.70;99.90
42187;DHT22;27858;51.414;0.018;2023-04-25T12:50:54;12.70;99.90
42187;DHT22;27858;51.414;0.018;2023-04-25T12:53:22;12.60;99.90
42187;DHT22;27858;51.414;0.018;2023-04-25T12:55:50;12.50;99.90
42187;DHT22;27858;51.414;0.018;2023-04-25T12:58:18;12.50;99.90
42187;DHT22;27858;51.414;0.018;2023-04-25T13:00:46;12.60;99.90
42187;DHT22;27858;51.414;0.018;2023-04-25T13:03:13;12.30;99.90
42187;DHT22;27858;51.414;0.018;2023-04-25T13:05:40;12.20;99.90
42187;DHT22;27858;51.414;0.018;2023-04-25T13:08:07;12.60;99.90
42187;DHT22;27858;51.414;0.018;2023-04-25T13:10:35;12.70;99.90
42187;DHT22;27858;51.414;0.018;2023-04-25T13:13:02;12.80;99.90
42187;DHT22;27858;51.414;0.018;2023-04-25T13:15:30;12.60;99.90
42187;DHT22;27858;51.414;0.018;2023-04-25T13:17:57;12.70;99.90
42187;DHT22;27858;51.414;0.018;2023-04-25T13:20:24;12.60;99.90
42187;DHT22;27858;51.414;0.018;2023-04-25T13:22:51;12.80;99.90
42187;DHT22;27858;51.414;0.018;2023-04-25T13:25:17;12.90;99.90
42187;DHT22;27858;51.414;0.018;2023-04-25T13:27:45;12.90;99.90
42187;DHT22;27858;51.414;0.018;2023-04-25T13:30:13;12.80;99.90
42187;DHT22;27858;51.414;0.018;2023-04-25T13:32:40;12.80;99.90
42187;DHT22;27858;51.414;0.018;2023-04-25T13:35:10;12.60;99.90
42187;DHT22;27858;51.414;0.018;2023-04-25T13:37:37;12.70;99.90
42187;DHT22;27858;51.414;0.018;2023-04-25T13:40:09;12.70;99.90
42187;DHT22;27858;51.414;0.018;2023-04-25T13:42:37;12.70;99.90
42187;DHT22;27858;51.414;0.018;2023-04-25T13:45:05;12.60;99.90
42187;DHT22;27858;51.414;0.018;2023-04-25T13:47:32;12.70;99.90
42187;DHT22;27858;51.414;0.018;2023-04-25T13:49:59;12.90;99.90
42187;DHT22;27858;51.414;0.018;2023-04-25T13:52:26;12.90;99.90
42187;DHT22;27858;51.414;0.018;2023-04-25T13:54:53;12.90;99.90
42187;DHT22;27858;51.414;0.018;2023-04-25T13:57:20;13.60;99.90
42187;DHT22;27858;51.414;0.018;2023-04-25T13:59:47;13.90;99.90
42187;DHT22;27858;51.414;0.018;2023-04-25T14:02:14;14.50;99.90
42187;DHT22;27858;51.414;0.018;2023-04-25T14:04:41;14.70;99.90
42187;DHT22;27858;51.414;0.018;2023-04-25T14:07:08;14.50;99.90
42187;DHT22;27858;51.414;0.018;2023-04-25T14:09:35;14.20;99.90
42187;DHT22;27858;51.414;0.018;2023-04-25T14:12:01;13.90;99.90
42187;DHT22;27858;51.414;0.018;2023-04-25T14:14:28;13.60;99.90
42187;DHT22;27858;51.414;0.018;2023-04-25T14:16:55;13.50;99.90
42187;DHT22;27858;51.414;0.018;2023-04-25T14:19:23;13.60;99.90
42187;DHT22;27858;51.414;0.018;2023-04-25T14:21:51;13.50;99.90
42187;DHT22;27858;51.414;0.018;2023-04-25T14:24:17;13.50;99.90
42187;DHT22;27858;51.414;0.018;2023-04-25T14:26:44;13.60;99.90
42187;DHT22;27858;51.414;0.018;2023-04-25T14:29:11;13.40;99.90
42187;DHT22;27858;51.414;0.018;2023-04-25T14:31:39;13.50;99.90
42187;DHT22;27858;51.414;0.018;2023-04-25T14:34:07;13.50;99.90
42187;DHT22;27858;51.414;0.018;2023-04-25T14:36:35;13.60;99.90
42187;DHT22;27858;51.414;0.018;2023-04-25T14:39:03;13.60;99.90
42187;DHT22;27858;51.414;0.018;2023-04-25T14:41:31;13.50;99.90
42187;DHT22;27858;51.414;0.018;2023-04-25T14:43:58;13.50;99.90
42187;DHT22;27858;51.414;0.018;2023-04-25T14:46:25;13.50;99.90
42187;DHT22;27858;51.414;0.018;2023-04-25T14:48:52;13.70;99.90
42187;DHT22;27858;51.414;0.018;2023-04-25T14:51:19;13.80;99.90
42187;DHT22;27858;51.414;0.018;2023-04-25T14:53:46;13.70;99.90
42187;DHT22;27858;51.414;0.018;2023-04-25T14:56:13;13.90;99.90
42187;DHT22;27858;51.414;0.018;2023-04-25T14:58:40;14.70;99.90
42187;DHT22;27858;51.414;0.018;2023-04-25T15:01:07;15.10;99.90
42187;DHT22;27858;51.414;0.018;2023-04-25T15:03:34;15.20;99.90
42187;DHT22;27858;51.414;0.018;2023-04-25T15:06:02;15.10;99.90
42187;DHT22;27858;51.414;0.018;2023-04-25T15:08:28;15.00;99.90
42187;DHT22;27858;51.414;0.018;2023-04-25T15:10:55;14.80;99.90
42187;DHT22;27858;51.414;0.018;2023-04-25T15:13:22;14.70;99.90
42187;DHT22;27858;51.414;0.018;2023-04-25T15:15:49;14.70;99.90
42187;DHT22;27858;51.414;0.018;2023-04-25T15:18:19;14.50;99.90
42187;DHT22;27858;51.414;0.018;2023-04-25T15:20:51;14.50;99.90
42187;DHT22;27858;51.414;0.018;2023-04-25T15:23:19;14.40;99.90
42187;DHT22;27858;51.414;0.018;2023-04-25T15:25:46;14.40;99.90
42187;DHT22;27858;51.414;0.018;2023-04-25T15:28:13;14.20;99.90
42187;DHT22;27858;51.414;0.018;2023-04-25T15:30:43;14.20;99.90
42187;DHT22;27858;51.414;0.018;2023-04-25T15:33:10;14.30;99.90
42187;DHT22;27858;51.414;0.018;2023-04-25T15:35:37;15.00;99.90
42187;DHT22;27858;51.414;0.018;2023-04-25T15:38:04;15.50;99.90
42187;DHT22;27858;51.414;0.018;2023-04-25T15:40:30;16.10;99.90
42187;DHT22;27858;51.414;0.018;2023-04-25T15:42:57;16.40;99.90
42187;DHT22;27858;51.414;0.018;2023-04-25T15:45:25;15.90;99.90
42187;DHT22;27858;51.414;0.018;2023-04-25T15:47:54;15.60;99.90
42187;DHT22;27858;51.414;0.018;2023-04-25T15:50:22;15.50;99.90
42187;DHT22;27858;51.414;0.018;2023-04-25T15:52:49;15.20;99.90
42187;DHT22;27858;51.414;0.018;2023-04-25T15:55:18;14.90;99.90
42187;DHT22;27858;51.414;0.018;2023-04-25T15:57:45;14.70;99.90
42187;DHT22;27858;51.414;0.018;2023-04-25T16:00:13;14.60;99.90
42187;DHT22;27858;51.414;0.018;2023-04-25T16:02:41;14.50;99.90
42187;DHT22;27858;51.414;0.018;2023-04-25T16:05:09;14.40;99.90
42187;DHT22;27858;51.414;0.018;2023-04-25T16:07:38;14.30;99.90
42187;DHT22;27858;51.414;0.018;2023-04-25T16:10:05;14.20;99.90
42187;DHT22;27858;51.414;0.018;2023-04-25T16:12:32;14.20;99.90
42187;DHT22;27858;51.414;0.018;2023-04-25T16:14:59;14.00;99.90
42187;DHT22;27858;51.414;0.018;2023-04-25T16:17:26;13.60;99.90
42187;DHT22;27858;51.414;0.018;2023-04-25T16:19:56;13.70;99.90
42187;DHT22;27858;51.414;0.018;2023-04-25T16:22:24;13.70;99.90
42187;DHT22;27858;51.414;0.018;2023-04-25T16:24:51;13.40;99.90
42187;DHT22;27858;51.414;0.018;2023-04-25T16:27:18;13.40;99.90
42187;DHT22;27858;51.414;0.018;2023-04-25T16:29:45;13.40;99.90
42187;DHT22;27858;51.414;0.018;2023-04-25T16:32:12;13.30;99.90
42187;DHT22;27858;51.414;0.018;2023-04-25T16:34:39;13.30;99.90
42187;DHT22;27858;51.414;0.018;2023-04-25T16:37:05;13.10;99.90
42187;DHT22;27858;51.414;0.018;2023-04-25T16:39:34;13.20;99.90
42187;DHT22;27858;51.414;0.018;2023-04-25T16:42:01;13.30;99.90
42187;DHT22;27858;51.414;0.018;2023-04-25T16:44:30;13.40;99.90
42187;DHT22;27858;51.414;0.018;2023-04-25T16:46:57;13.50;99.90
42187;DHT22;27858;51.414;0.018;2023-04-25T16:49:24;13.50;99.90
42187;DHT22;27858;51.414;0.018;2023-04-25T16:51:51;13.50;99.90
42187;DHT22;27858;51.414;0.018;2023-04-25T16:54:18;13.40;99.90
42187;DHT22;27858;51.414;0.018;2023-04-25T16:56:45;13.40;99.90
42187;DHT22;27858;51.414;0.018;2023-04-25T16:59:12;13.40;99.90
42187;DHT22;27858;51.414;0.018;2023-04-25T17:01:38;13.20;99.90
42187;DHT22;27858;51.414;0.018;2023-04-25T17:04:05;13.10;99.90
42187;DHT22;27858;51.414;0.018;2023-04-25T17:06:33;13.10;99.90
42187;DHT22;27858;51.414;0.018;2023-04-25T17:09:00;13.10;99.90
42187;DHT22;27858;51.414;0.018;2023-04-25T17:11:27;13.30;99.90
42187;DHT22;27858;51.414;0.018;2023-04-25T17:13:54;13.70;99.90
42187;DHT22;27858;51.414;0.018;2023-04-25T17:16:21;13.80;99.90
42187;DHT22;27858;51.414;0.018;2023-04-25T17:18:51;13.80;99.90
42187;DHT22;27858;51.414;0.018;2023-04-25T17:21:19;13.80;99.90
42187;DHT22;27858;51.414;0.018;2023-04-25T17:23:45;13.70;99.90
42187;DHT22;27858;51.414;0.018;2023-04-25T17:26:13;14.00;99.90
42187;DHT22;27858;51.414;0.018;2023-04-25T17:28:40;14.20;99.90
42187;DHT22;27858;51.414;0.018;2023-04-25T17:31:07;14.30;99.90
42187;DHT22;27858;51.414;0.018;2023-04-25T17:33:35;14.20;99.90
42187;DHT22;27858;51.414;0.018;2023-04-25T17:36:02;13.90;99.90
42187;DHT22;27858;51.414;0.018;2023-04-25T17:38:29;13.70;99.90
42187;DHT22;27858;51.414;0.018;2023-04-25T17:40:57;13.60;99.90
42187;DHT22;27858;51.414;0.018;2023-04-25T17:43:24;13.50;99.90
42187;DHT22;27858;51.414;0.018;2023-04-25T17:45:53;13.30;99.90
42187;DHT22;27858;51.414;0.018;2023-04-25T17:48:20;13.20;99.90
42187;DHT22;27858;51.414;0.018;2023-04-25T17:50:50;12.90;99.90
42187;DHT22;27858;51.414;0.018;2023-04-25T17:53:16;12.80;99.90
42187;DHT22;27858;51.414;0.018;2023-04-25T17:55:43;12.80;99.90
42187;DHT22;27858;51.414;0.018;2023-04-25T17:58:10;12.80;99.90
42187;DHT22;27858;51.414;0.018;2023-04-25T18:00:38;12.70;99.90
42187;DHT22;27858;51.414;0.018;2023-04-25T18:03:05;12.60;99.90
42187;DHT22;27858;51.414;0.018;2023-04-25T18:05:33;12.50;99.90
42187;DHT22;27858;51.414;0.018;2023-04-25T18:08:00;12.60;99.90
42187;DHT22;27858;51.414;0.018;2023-04-25T18:10:27;12.50;99.90
42187;DHT22;27858;51.414;0.018;2023-04-25T18:12:54;12.50;99.90
42187;DHT22;27858;51.414;0.018;2023-04-25T18:15:21;12.40;99.90
42187;DHT22;27858;51.414;0.018;2023-04-25T18:17:48;12.30;99.90
42187;DHT22;27858;51.414;0.018;2023-04-25T18:20:16;12.20;99.90
42187;DHT22;27858;51.414;0.018;2023-04-25T18:22:44;12.00;99.90
42187;DHT22;27858;51.414;0.018;2023-04-25T18:25:11;11.90;99.90
42187;DHT22;27858;51.414;0.018;2023-04-25T18:27:40;11.80;99.90
42187;DHT22;27858;51.414;0.018;2023-04-25T18:30:08;11.70;99.90
42187;DHT22;27858;51.414;0.018;2023-04-25T18:32:36;11.60;99.90
42187;DHT22;27858;51.414;0.018;2023-04-25T18:35:03;11.50;99.90
42187;DHT22;27858;51.414;0.018;2023-04-25T18:37:30;11.50;99.90
42187;DHT22;27858;51.414;0.018;2023-04-25T18:39:57;11.40;99.90
42187;DHT22;27858;51.414;0.018;2023-04-25T18:42:24;11.20;99.90
42187;DHT22;27858;51.414;0.018;2023-04-25T18:44:51;11.20;99.90
42187;DHT22;27858;51.414;0.018;2023-04-25T18:47:18;11.10;99.90
42187;DHT22;27858;51.414;0.018;2023-04-25T18:49:45;10.90;99.90
42187;DHT22;27858;51.414;0.018;2023-04-25T18:52:13;10.80;99.90
42187;DHT22;27858;51.414;0.018;2023-04-25T18:54:41;10.70;99.90
42187;DHT22;27858;51.414;0.018;2023-04-25T18:57:08;10.70;99.90
42187;DHT22;27858;51.414;0.018;2023-04-25T18:59:40;10.60;99.90
42187;DHT22;27858;51.414;0.018;2023-04-25T19:02:07;10.50;99.90
42187;DHT22;27858;51.414;0.018;2023-04-25T19:04:35;10.50;99.90
42187;DHT22;27858;51.414;0.018;2023-04-25T19:07:02;10.30;99.90
42187;DHT22;27858;51.414;0.018;2023-04-25T19:09:29;10.30;99.90
42187;DHT22;27858;51.414;0.018;2023-04-25T19:11:57;10.20;99.90
42187;DHT22;27858;51.414;0.018;2023-04-25T19:14:24;10.20;99.90
42187;DHT22;27858;51.414;0.018;2023-04-25T19:16:52;10.10;99.90
42187;DHT22;27858;51.414;0.018;2023-04-25T19:19:19;10.00;99.90
42187;DHT22;27858;51.414;0.018;2023-04-25T19:21:46;10.00;99.90
42187;DHT22;27858;51.414;0.018;2023-04-25T19:24:16;9.90;99.90
42187;DHT22;27858;51.414;0.018;2023-04-25T19:26:43;9.80;99.90
42187;DHT22;27858;51.414;0.018;2023-04-25T19:29:11;9.70;99.90
42187;DHT22;27858;51.414;0.018;2023-04-25T19:31:41;9.70;99.90
42187;DHT22;27858;51.414;0.018;2023-04-25T19:34:10;9.70;99.90
42187;DHT22;27858;51.414;0.018;2023-04-25T19:36:39;9.60;99.90
42187;DHT22;27858;51.414;0.018;2023-04-25T19:39:07;9.60;99.90
42187;DHT22;27858;51.414;0.018;2023-04-25T19:41:35;9.50;99.90
42187;DHT22;27858;51.414;0.018;2023-04-25T19:44:05;9.50;99.90
42187;DHT22;27858;51.414;0.018;2023-04-25T19:46:34;9.40;99.90
42187;DHT22;27858;51.414;0.018;2023-04-25T19:49:01;9.40;99.90
42187;DHT22;27858;51.414;0.018;2023-04-25T19:51:32;9.30;99.90
42187;DHT22;27858;51.414;0.018;2023-04-25T19:53:59;9.30;99.90
42187;DHT22;27858;51.414;0.018;2023-04-25T19:56:26;9.30;1.00